sensor_id;sensor_type;location;lat;lon;timestamp;P1;durP1;ratioP1;P2;durP2;ratioP2
20173;SDS011;10246;50.620;7.232;2022-10-13T00:02:06;9.00;;;5.47;;
20173;SDS011;10246;50.620;7.232;2022-10-13T00:04:33;12.93;;;6.10;;
20173;SDS011;10246;50.620;7.232;2022-10-13T00:07:01;8.47;;;5.27;;
20173;SDS011;10246;50.620;7.232;2022-10-13T00:09:28;9.50;;;5.57;;
20173;SDS011;10246;50.620;7.232;2022-10-13T00:11:55;10.00;;;5.10;;
20173;SDS011;10246;50.620;7.232;2022-10-13T00:14:22;7.53;;;5.63;;
20173;SDS011;10246;50.620;7.232;2022-10-13T00:16:49;8.97;;;5.70;;
20173;SDS011;10246;50.620;7.232;2022-10-13T00:19:16;11.50;;;6.47;;
20173;SDS011;10246;50.620;7.232;2022-10-13T00:21:43;10.27;;;6.67;;
20173;SDS011;10246;50.620;7.232;2022-10-13T00:24:11;11.63;;;6.40;;
20173;SDS011;10246;50.620;7.232;2022-10-13T00:26:37;10.23;;;6.87;;
20173;SDS011;10246;50.620;7.232;2022-10-13T00:29:04;10.60;;;6.90;;
20173;SDS011;10246;50.620;7.232;2022-10-13T00:31:31;9.43;;;6.20;;
20173;SDS011;10246;50.620;7.232;2022-10-13T00:33:58;7.90;;;5.97;;
20173;SDS011;10246;50.620;7.232;2022-10-13T00:36:26;9.47;;;6.50;;
20173;SDS011;10246;50.620;7.232;2022-10-13T00:38:55;9.10;;;6.10;;
20173;SDS011;10246;50.620;7.232;2022-10-13T00:41:23;9.30;;;5.40;;
20173;SDS011;10246;50.620;7.232;2022-10-13T00:43:52;8.33;;;5.37;;
20173;SDS011;10246;50.620;7.232;2022-10-13T00:46:23;7.37;;;5.57;;
20173;SDS011;10246;50.620;7.232;2022-10-13T00:48:50;7.83;;;5.40;;
20173;SDS011;10246;50.620;7.232;2022-10-13T00:51:18;10.53;;;5.93;;
20173;SDS011;10246;50.620;7.232;2022-10-13T00:53:48;10.47;;;5.50;;
20173;SDS011;10246;50.620;7.232;2022-10-13T00:56:15;8.60;;;6.03;;
20173;SDS011;10246;50.620;7.232;2022-10-13T00:58:45;7.93;;;5.90;;
20173;SDS011;10246;50.620;7.232;2022-10-13T01:01:14;8.97;;;6.23;;
20173;SDS011;10246;50.620;7.232;2022-10-13T01:03:41;11.00;;;6.97;;
20173;SDS011;10246;50.620;7.232;2022-10-13T01:06:08;9.93;;;5.73;;
20173;SDS011;10246;50.620;7.232;2022-10-13T01:08:36;9.30;;;6.50;;
20173;SDS011;10246;50.620;7.232;2022-10-13T01:11:08;8.30;;;6.20;;
20173;SDS011;10246;50.620;7.232;2022-10-13T01:13:47;12.27;;;6.57;;
20173;SDS011;10246;50.620;7.232;2022-10-13T01:16:22;7.57;;;5.90;;
20173;SDS011;10246;50.620;7.232;2022-10-13T01:18:56;8.10;;;5.73;;
20173;SDS011;10246;50.620;7.232;2022-10-13T01:21:31;7.57;;;5.87;;
20173;SDS011;10246;50.620;7.232;2022-10-13T01:24:23;8.83;;;5.70;;
20173;SDS011;10246;50.620;7.232;2022-10-13T01:27:07;7.07;;;5.67;;
20173;SDS011;10246;50.620;7.232;2022-10-13T01:29:58;9.83;;;5.87;;
20173;SDS011;10246;50.620;7.232;2022-10-13T01:32:31;8.33;;;5.77;;
20173;SDS011;10246;50.620;7.232;2022-10-13T01:35:10;7.43;;;5.97;;
20173;SDS011;10246;50.620;7.232;2022-10-13T01:37:42;9.30;;;5.77;;
20173;SDS011;10246;50.620;7.232;2022-10-13T01:40:15;9.50;;;6.10;;
20173;SDS011;10246;50.620;7.232;2022-10-13T01:42:53;8.73;;;6.13;;
20173;SDS011;10246;50.620;7.232;2022-10-13T01:45:25;6.53;;;5.33;;
20173;SDS011;10246;50.620;7.232;2022-10-13T01:47:56;11.80;;;6.63;;
20173;SDS011;10246;50.620;7.232;2022-10-13T01:50:25;9.83;;;5.73;;
20173;SDS011;10246;50.620;7.232;2022-10-13T01:52:53;8.03;;;5.57;;
20173;SDS011;10246;50.620;7.232;2022-10-13T01:55:21;10.20;;;6.13;;
20173;SDS011;10246;50.620;7.232;2022-10-13T01:57:48;9.73;;;6.10;;
20173;SDS011;10246;50.620;7.232;2022-10-13T02:00:15;15.17;;;6.30;;
20173;SDS011;10246;50.620;7.232;2022-10-13T02:02:48;10.13;;;6.20;;
20173;SDS011;10246;50.620;7.232;2022-10-13T02:05:26;9.90;;;6.20;;
20173;SDS011;10246;50.620;7.232;2022-10-13T02:08:00;11.27;;;6.13;;
20173;SDS011;10246;50.620;7.232;2022-10-13T02:10:32;11.90;;;6.13;;
20173;SDS011;10246;50.620;7.232;2022-10-13T02:13:05;7.87;;;5.80;;
20173;SDS011;10246;50.620;7.232;2022-10-13T02:15:34;10.77;;;6.40;;
20173;SDS011;10246;50.620;7.232;2022-10-13T02:18:07;10.10;;;6.13;;
20173;SDS011;10246;50.620;7.232;2022-10-13T02:20:34;9.77;;;6.57;;
20173;SDS011;10246;50.620;7.232;2022-10-13T02:23:03;10.10;;;7.30;;
20173;SDS011;10246;50.620;7.232;2022-10-13T02:25:34;12.50;;;6.90;;
20173;SDS011;10246;50.620;7.232;2022-10-13T02:28:01;9.03;;;6.30;;
20173;SDS011;10246;50.620;7.232;2022-10-13T02:30:30;10.57;;;6.33;;
20173;SDS011;10246;50.620;7.232;2022-10-13T02:32:58;7.20;;;5.73;;
20173;SDS011;10246;50.620;7.232;2022-10-13T02:35:26;11.57;;;6.37;;
20173;SDS011;10246;50.620;7.232;2022-10-13T02:37:53;8.87;;;6.20;;
20173;SDS011;10246;50.620;7.232;2022-10-13T02:40:20;8.90;;;6.70;;
20173;SDS011;10246;50.620;7.232;2022-10-13T02:42:47;11.60;;;7.30;;
20173;SDS011;10246;50.620;7.232;2022-10-13T02:45:14;10.20;;;6.97;;
20173;SDS011;10246;50.620;7.232;2022-10-13T02:47:40;11.87;;;7.50;;
20173;SDS011;10246;50.620;7.232;2022-10-13T02:50:08;11.93;;;7.03;;
20173;SDS011;10246;50.620;7.232;2022-10-13T02:52:36;11.70;;;7.33;;
20173;SDS011;10246;50.620;7.232;2022-10-13T02:55:04;8.80;;;6.63;;
20173;SDS011;10246;50.620;7.232;2022-10-13T02:57:31;9.83;;;7.03;;
20173;SDS011;10246;50.620;7.232;2022-10-13T02:59:58;9.50;;;6.90;;
20173;SDS011;10246;50.620;7.232;2022-10-13T03:02:25;10.83;;;7.03;;
20173;SDS011;10246;50.620;7.232;2022-10-13T03:04:52;10.90;;;6.80;;
20173;SDS011;10246;50.620;7.232;2022-10-13T03:07:20;9.57;;;6.87;;
20173;SDS011;10246;50.620;7.232;2022-10-13T03:09:48;11.97;;;6.73;;
20173;SDS011;10246;50.620;7.232;2022-10-13T03:12:14;12.60;;;6.70;;
20173;SDS011;10246;50.620;7.232;2022-10-13T03:14:41;8.57;;;6.30;;
20173;SDS011;10246;50.620;7.232;2022-10-13T03:17:08;10.37;;;6.67;;
20173;SDS011;10246;50.620;7.232;2022-10-13T03:19:35;9.60;;;6.57;;
20173;SDS011;10246;50.620;7.232;2022-10-13T03:22:02;10.33;;;6.47;;
20173;SDS011;10246;50.620;7.232;2022-10-13T03:24:28;11.80;;;6.63;;
20173;SDS011;10246;50.620;7.232;2022-10-13T03:26:57;10.00;;;6.53;;
20173;SDS011;10246;50.620;7.232;2022-10-13T03:29:24;9.17;;;6.57;;
20173;SDS011;10246;50.620;7.232;2022-10-13T03:31:50;8.67;;;6.30;;
20173;SDS011;10246;50.620;7.232;2022-10-13T03:34:17;10.13;;;7.00;;
20173;SDS011;10246;50.620;7.232;2022-10-13T03:36:44;12.60;;;8.27;;
20173;SDS011;10246;50.620;7.232;2022-10-13T03:39:11;10.93;;;7.40;;
20173;SDS011;10246;50.620;7.232;2022-10-13T03:41:38;11.10;;;7.33;;
20173;SDS011;10246;50.620;7.232;2022-10-13T03:44:06;14.10;;;7.60;;
20173;SDS011;10246;50.620;7.232;2022-10-13T03:46:33;11.13;;;7.53;;
20173;SDS011;10246;50.620;7.232;2022-10-13T03:48:59;10.67;;;6.93;;
20173;SDS011;10246;50.620;7.232;2022-10-13T03:51:26;13.83;;;7.50;;
20173;SDS011;10246;50.620;7.232;2022-10-13T03:53:53;13.30;;;7.33;;
20173;SDS011;10246;50.620;7.232;2022-10-13T03:56:20;9.90;;;6.93;;
20173;SDS011;10246;50.620;7.232;2022-10-13T03:58:48;10.87;;;6.57;;
20173;SDS011;10246;50.620;7.232;2022-10-13T04:01:19;8.73;;;6.43;;
20173;SDS011;10246;50.620;7.232;2022-10-13T04:03:47;11.57;;;7.23;;
20173;SDS011;10246;50.620;7.232;2022-10-13T04:06:14;8.83;;;6.53;;
20173;SDS011;10246;50.620;7.232;2022-10-13T04:08:41;12.30;;;7.43;;
20173;SDS011;10246;50.620;7.232;2022-10-13T04:11:09;10.53;;;7.23;;
20173;SDS011;10246;50.620;7.232;2022-10-13T04:13:38;11.20;;;7.10;;
20173;SDS011;10246;50.620;7.232;2022-10-13T04:16:05;11.00;;;7.37;;
20173;SDS011;10246;50.620;7.232;2022-10-13T04:18:34;10.33;;;7.50;;
20173;SDS011;10246;50.620;7.232;2022-10-13T04:21:05;13.10;;;7.90;;
20173;SDS011;10246;50.620;7.232;2022-10-13T04:23:33;11.80;;;7.60;;
20173;SDS011;10246;50.620;7.232;2022-10-13T04:25:59;13.23;;;7.83;;
20173;SDS011;10246;50.620;7.232;2022-10-13T04:28:26;16.17;;;8.67;;
20173;SDS011;10246;50.620;7.232;2022-10-13T04:30:53;13.93;;;8.33;;
20173;SDS011;10246;50.620;7.232;2022-10-13T04:33:20;13.50;;;8.20;;
20173;SDS011;10246;50.620;7.232;2022-10-13T04:35:48;12.03;;;8.33;;
20173;SDS011;10246;50.620;7.232;2022-10-13T04:38:14;12.23;;;8.27;;
20173;SDS011;10246;50.620;7.232;2022-10-13T04:40:41;11.77;;;7.80;;
20173;SDS011;10246;50.620;7.232;2022-10-13T04:43:08;11.50;;;8.23;;
20173;SDS011;10246;50.620;7.232;2022-10-13T04:45:34;12.33;;;7.53;;
20173;SDS011;10246;50.620;7.232;2022-10-13T04:48:01;14.53;;;8.73;;
20173;SDS011;10246;50.620;7.232;2022-10-13T04:50:28;12.77;;;8.00;;
20173;SDS011;10246;50.620;7.232;2022-10-13T04:52:56;12.13;;;7.83;;
20173;SDS011;10246;50.620;7.232;2022-10-13T04:55:24;13.00;;;7.97;;
20173;SDS011;10246;50.620;7.232;2022-10-13T04:57:50;14.43;;;9.13;;
20173;SDS011;10246;50.620;7.232;2022-10-13T05:00:17;14.27;;;8.83;;
20173;SDS011;10246;50.620;7.232;2022-10-13T05:02:44;14.10;;;9.03;;
20173;SDS011;10246;50.620;7.232;2022-10-13T05:05:11;17.63;;;10.10;;
20173;SDS011;10246;50.620;7.232;2022-10-13T05:07:38;17.00;;;9.40;;
20173;SDS011;10246;50.620;7.232;2022-10-13T05:10:06;15.80;;;9.37;;
20173;SDS011;10246;50.620;7.232;2022-10-13T05:12:33;16.73;;;9.73;;
20173;SDS011;10246;50.620;7.232;2022-10-13T05:15:01;16.40;;;9.87;;
20173;SDS011;10246;50.620;7.232;2022-10-13T05:17:28;15.67;;;10.23;;
20173;SDS011;10246;50.620;7.232;2022-10-13T05:19:56;15.00;;;9.97;;
20173;SDS011;10246;50.620;7.232;2022-10-13T05:22:23;14.83;;;10.13;;
20173;SDS011;10246;50.620;7.232;2022-10-13T05:24:49;17.80;;;10.47;;
20173;SDS011;10246;50.620;7.232;2022-10-13T05:27:18;18.10;;;10.70;;
20173;SDS011;10246;50.620;7.232;2022-10-13T05:29:45;15.50;;;9.30;;
20173;SDS011;10246;50.620;7.232;2022-10-13T05:32:12;18.30;;;9.73;;
20173;SDS011;10246;50.620;7.232;2022-10-13T05:34:38;14.77;;;9.40;;
20173;SDS011;10246;50.620;7.232;2022-10-13T05:37:05;16.97;;;9.60;;
20173;SDS011;10246;50.620;7.232;2022-10-13T05:39:32;13.23;;;9.33;;
20173;SDS011;10246;50.620;7.232;2022-10-13T05:41:58;17.63;;;9.43;;
20173;SDS011;10246;50.620;7.232;2022-10-13T05:44:26;13.40;;;8.70;;
20173;SDS011;10246;50.620;7.232;2022-10-13T05:46:53;14.43;;;9.00;;
20173;SDS011;10246;50.620;7.232;2022-10-13T05:49:20;18.90;;;10.83;;
20173;SDS011;10246;50.620;7.232;2022-10-13T05:51:48;15.47;;;9.37;;
20173;SDS011;10246;50.620;7.232;2022-10-13T05:54:19;19.20;;;9.30;;
20173;SDS011;10246;50.620;7.232;2022-10-13T05:56:49;12.67;;;8.47;;
20173;SDS011;10246;50.620;7.232;2022-10-13T05:59:19;13.77;;;8.73;;
20173;SDS011;10246;50.620;7.232;2022-10-13T06:01:48;13.57;;;8.37;;
20173;SDS011;10246;50.620;7.232;2022-10-13T06:04:17;12.53;;;9.07;;
20173;SDS011;10246;50.620;7.232;2022-10-13T06:06:46;13.03;;;8.53;;
20173;SDS011;10246;50.620;7.232;2022-10-13T06:09:14;12.63;;;8.83;;
20173;SDS011;10246;50.620;7.232;2022-10-13T06:11:41;11.80;;;8.57;;
20173;SDS011;10246;50.620;7.232;2022-10-13T06:14:08;19.17;;;8.97;;
20173;SDS011;10246;50.620;7.232;2022-10-13T06:16:35;13.13;;;8.60;;
20173;SDS011;10246;50.620;7.232;2022-10-13T06:19:03;17.87;;;10.47;;
20173;SDS011;10246;50.620;7.232;2022-10-13T06:21:30;16.27;;;10.13;;
20173;SDS011;10246;50.620;7.232;2022-10-13T06:23:59;15.27;;;9.77;;
20173;SDS011;10246;50.620;7.232;2022-10-13T06:26:26;18.03;;;11.70;;
20173;SDS011;10246;50.620;7.232;2022-10-13T06:28:53;16.83;;;10.47;;
20173;SDS011;10246;50.620;7.232;2022-10-13T06:31:19;15.40;;;9.53;;
20173;SDS011;10246;50.620;7.232;2022-10-13T06:33:46;17.63;;;10.70;;
20173;SDS011;10246;50.620;7.232;2022-10-13T06:36:14;18.30;;;11.27;;
20173;SDS011;10246;50.620;7.232;2022-10-13T06:38:41;18.10;;;10.67;;
20173;SDS011;10246;50.620;7.232;2022-10-13T06:41:08;18.33;;;11.23;;
20173;SDS011;10246;50.620;7.232;2022-10-13T06:43:35;16.87;;;10.97;;
20173;SDS011;10246;50.620;7.232;2022-10-13T06:46:02;22.67;;;10.87;;
20173;SDS011;10246;50.620;7.232;2022-10-13T06:48:29;20.30;;;11.50;;
20173;SDS011;10246;50.620;7.232;2022-10-13T06:50:59;20.53;;;11.40;;
20173;SDS011;10246;50.620;7.232;2022-10-13T06:53:27;18.47;;;11.13;;
20173;SDS011;10246;50.620;7.232;2022-10-13T06:55:55;19.13;;;11.67;;
20173;SDS011;10246;50.620;7.232;2022-10-13T06:58:22;18.00;;;11.17;;
20173;SDS011;10246;50.620;7.232;2022-10-13T07:00:49;17.73;;;11.73;;
20173;SDS011;10246;50.620;7.232;2022-10-13T07:03:15;21.53;;;12.50;;
20173;SDS011;10246;50.620;7.232;2022-10-13T07:05:42;20.33;;;12.20;;
20173;SDS011;10246;50.620;7.232;2022-10-13T07:08:09;21.03;;;14.13;;
20173;SDS011;10246;50.620;7.232;2022-10-13T07:10:37;24.30;;;14.73;;
20173;SDS011;10246;50.620;7.232;2022-10-13T07:13:05;22.77;;;13.40;;
20173;SDS011;10246;50.620;7.232;2022-10-13T07:15:31;25.40;;;13.73;;
20173;SDS011;10246;50.620;7.232;2022-10-13T07:17:58;24.73;;;13.63;;
20173;SDS011;10246;50.620;7.232;2022-10-13T07:20:25;19.30;;;13.00;;
20173;SDS011;10246;50.620;7.232;2022-10-13T07:22:52;21.40;;;12.97;;
20173;SDS011;10246;50.620;7.232;2022-10-13T07:25:19;23.13;;;13.97;;
20173;SDS011;10246;50.620;7.232;2022-10-13T07:27:47;22.70;;;14.07;;
20173;SDS011;10246;50.620;7.232;2022-10-13T07:30:14;31.47;;;16.37;;
20173;SDS011;10246;50.620;7.232;2022-10-13T07:32:41;29.53;;;15.77;;
20173;SDS011;10246;50.620;7.232;2022-10-13T07:35:08;22.80;;;14.63;;
20173;SDS011;10246;50.620;7.232;2022-10-13T07:37:35;21.87;;;13.70;;
20173;SDS011;10246;50.620;7.232;2022-10-13T07:40:03;23.43;;;14.90;;
20173;SDS011;10246;50.620;7.232;2022-10-13T07:42:31;25.47;;;15.10;;
20173;SDS011;10246;50.620;7.232;2022-10-13T07:44:59;25.97;;;14.40;;
20173;SDS011;10246;50.620;7.232;2022-10-13T07:47:26;22.20;;;13.03;;
20173;SDS011;10246;50.620;7.232;2022-10-13T07:49:53;24.33;;;14.43;;
20173;SDS011;10246;50.620;7.232;2022-10-13T07:52:20;21.97;;;12.87;;
20173;SDS011;10246;50.620;7.232;2022-10-13T07:54:47;28.63;;;15.07;;
20173;SDS011;10246;50.620;7.232;2022-10-13T07:57:15;24.83;;;14.87;;
20173;SDS011;10246;50.620;7.232;2022-10-13T07:59:42;24.03;;;13.87;;
20173;SDS011;10246;50.620;7.232;2022-10-13T08:02:10;19.97;;;13.50;;
20173;SDS011;10246;50.620;7.232;2022-10-13T08:04:37;24.87;;;15.37;;
20173;SDS011;10246;50.620;7.232;2022-10-13T08:07:04;29.60;;;16.20;;
20173;SDS011;10246;50.620;7.232;2022-10-13T08:09:31;26.87;;;15.47;;
20173;SDS011;10246;50.620;7.232;2022-10-13T08:11:58;31.00;;;17.80;;
20173;SDS011;10246;50.620;7.232;2022-10-13T08:14:25;31.33;;;17.00;;
20173;SDS011;10246;50.620;7.232;2022-10-13T08:16:51;28.40;;;16.10;;
20173;SDS011;10246;50.620;7.232;2022-10-13T08:19:19;29.07;;;15.77;;
20173;SDS011;10246;50.620;7.232;2022-10-13T08:21:46;28.47;;;16.03;;
20173;SDS011;10246;50.620;7.232;2022-10-13T08:24:14;26.47;;;15.70;;
20173;SDS011;10246;50.620;7.232;2022-10-13T08:26:42;30.33;;;17.80;;
20173;SDS011;10246;50.620;7.232;2022-10-13T08:29:10;29.13;;;16.37;;
20173;SDS011;10246;50.620;7.232;2022-10-13T08:31:37;32.17;;;16.73;;
20173;SDS011;10246;50.620;7.232;2022-10-13T08:34:04;28.43;;;16.27;;
20173;SDS011;10246;50.620;7.232;2022-10-13T08:36:32;25.77;;;15.70;;
20173;SDS011;10246;50.620;7.232;2022-10-13T08:38:59;30.73;;;17.70;;
20173;SDS011;10246;50.620;7.232;2022-10-13T08:41:26;29.77;;;17.43;;
20173;SDS011;10246;50.620;7.232;2022-10-13T08:43:56;32.37;;;17.80;;
20173;SDS011;10246;50.620;7.232;2022-10-13T08:46:29;26.17;;;14.53;;
20173;SDS011;10246;50.620;7.232;2022-10-13T08:48:59;34.33;;;17.87;;
20173;SDS011;10246;50.620;7.232;2022-10-13T08:51:26;27.47;;;15.43;;
20173;SDS011;10246;50.620;7.232;2022-10-13T08:53:55;31.37;;;16.77;;
20173;SDS011;10246;50.620;7.232;2022-10-13T08:56:24;23.93;;;13.37;;
20173;SDS011;10246;50.620;7.232;2022-10-13T08:58:53;27.43;;;15.23;;
20173;SDS011;10246;50.620;7.232;2022-10-13T09:01:21;23.37;;;14.33;;
20173;SDS011;10246;50.620;7.232;2022-10-13T09:03:50;26.30;;;14.87;;
20173;SDS011;10246;50.620;7.232;2022-10-13T09:06:20;23.47;;;13.53;;
20173;SDS011;10246;50.620;7.232;2022-10-13T09:08:53;24.10;;;12.97;;
20173;SDS011;10246;50.620;7.232;2022-10-13T09:11:25;21.03;;;12.27;;
20173;SDS011;10246;50.620;7.232;2022-10-13T09:13:54;25.97;;;12.93;;
20173;SDS011;10246;50.620;7.232;2022-10-13T09:16:28;16.27;;;10.33;;
20173;SDS011;10246;50.620;7.232;2022-10-13T09:19:10;17.93;;;9.90;;
20173;SDS011;10246;50.620;7.232;2022-10-13T09:21:49;16.87;;;9.33;;
20173;SDS011;10246;50.620;7.232;2022-10-13T09:24:18;15.27;;;8.57;;
20173;SDS011;10246;50.620;7.232;2022-10-13T09:26:47;19.37;;;9.43;;
20173;SDS011;10246;50.620;7.232;2022-10-13T09:29:24;15.13;;;9.00;;
20173;SDS011;10246;50.620;7.232;2022-10-13T09:31:52;17.83;;;8.77;;
20173;SDS011;10246;50.620;7.232;2022-10-13T09:34:32;13.10;;;8.37;;
20173;SDS011;10246;50.620;7.232;2022-10-13T09:36:59;17.53;;;8.40;;
20173;SDS011;10246;50.620;7.232;2022-10-13T09:39:29;17.77;;;8.10;;
20173;SDS011;10246;50.620;7.232;2022-10-13T09:42:17;15.40;;;7.90;;
20173;SDS011;10246;50.620;7.232;2022-10-13T09:44:47;16.30;;;7.47;;
20173;SDS011;10246;50.620;7.232;2022-10-13T09:47:21;14.10;;;8.07;;
20173;SDS011;10246;50.620;7.232;2022-10-13T09:49:56;16.67;;;8.60;;
20173;SDS011;10246;50.620;7.232;2022-10-13T09:52:25;12.93;;;8.17;;
20173;SDS011;10246;50.620;7.232;2022-10-13T09:54:55;15.37;;;8.37;;
20173;SDS011;10246;50.620;7.232;2022-10-13T09:57:25;14.60;;;8.57;;
20173;SDS011;10246;50.620;7.232;2022-10-13T10:00:01;14.33;;;8.80;;
20173;SDS011;10246;50.620;7.232;2022-10-13T10:02:32;12.73;;;8.37;;
20173;SDS011;10246;50.620;7.232;2022-10-13T10:05:04;14.50;;;8.90;;
20173;SDS011;10246;50.620;7.232;2022-10-13T10:07:36;13.27;;;8.43;;
20173;SDS011;10246;50.620;7.232;2022-10-13T10:10:04;15.60;;;8.87;;
20173;SDS011;10246;50.620;7.232;2022-10-13T10:12:39;16.23;;;8.43;;
20173;SDS011;10246;50.620;7.232;2022-10-13T10:15:14;11.40;;;7.90;;
20173;SDS011;10246;50.620;7.232;2022-10-13T10:17:46;14.67;;;8.03;;
20173;SDS011;10246;50.620;7.232;2022-10-13T10:20:25;13.07;;;7.83;;
20173;SDS011;10246;50.620;7.232;2022-10-13T10:23:06;16.80;;;8.33;;
20173;SDS011;10246;50.620;7.232;2022-10-13T10:25:39;16.23;;;8.30;;
20173;SDS011;10246;50.620;7.232;2022-10-13T10:28:15;13.53;;;7.67;;
20173;SDS011;10246;50.620;7.232;2022-10-13T10:30:52;12.93;;;8.40;;
20173;SDS011;10246;50.620;7.232;2022-10-13T10:33:27;16.40;;;8.87;;
20173;SDS011;10246;50.620;7.232;2022-10-13T10:36:01;16.03;;;8.20;;
20173;SDS011;10246;50.620;7.232;2022-10-13T10:38:42;11.90;;;8.03;;
20173;SDS011;10246;50.620;7.232;2022-10-13T10:41:15;13.97;;;8.13;;
20173;SDS011;10246;50.620;7.232;2022-10-13T10:43:54;13.00;;;8.33;;
20173;SDS011;10246;50.620;7.232;2022-10-13T10:46:27;19.63;;;7.90;;
20173;SDS011;10246;50.620;7.232;2022-10-13T10:48:57;12.90;;;8.07;;
20173;SDS011;10246;50.620;7.232;2022-10-13T10:51:28;14.20;;;8.30;;
20173;SDS011;10246;50.620;7.232;2022-10-13T10:54:01;14.63;;;7.43;;
20173;SDS011;10246;50.620;7.232;2022-10-13T10:56:45;12.33;;;6.97;;
20173;SDS011;10246;50.620;7.232;2022-10-13T10:59:21;14.00;;;7.67;;
20173;SDS011;10246;50.620;7.232;2022-10-13T11:01:57;12.10;;;7.70;;
20173;SDS011;10246;50.620;7.232;2022-10-13T11:04:33;11.90;;;7.20;;
20173;SDS011;10246;50.620;7.232;2022-10-13T11:07:08;14.07;;;8.10;;
20173;SDS011;10246;50.620;7.232;2022-10-13T11:09:59;14.40;;;7.60;;
20173;SDS011;10246;50.620;7.232;2022-10-13T11:15:47;14.13;;;8.60;;
20173;SDS011;10246;50.620;7.232;2022-10-13T11:21:20;19.13;;;8.60;;
20173;SDS011;10246;50.620;7.232;2022-10-13T11:23:47;14.20;;;7.97;;
20173;SDS011;10246;50.620;7.232;2022-10-13T11:29:17;17.47;;;8.03;;
20173;SDS011;10246;50.620;7.232;2022-10-13T11:32:10;14.63;;;8.47;;
20173;SDS011;10246;50.620;7.232;2022-10-13T11:35:17;16.10;;;8.80;;
20173;SDS011;10246;50.620;7.232;2022-10-13T11:37:48;11.57;;;7.00;;
20173;SDS011;10246;50.620;7.232;2022-10-13T11:40:27;11.73;;;6.83;;
20173;SDS011;10246;50.620;7.232;2022-10-13T11:43:04;10.07;;;6.97;;
20173;SDS011;10246;50.620;7.232;2022-10-13T11:45:47;10.37;;;6.50;;
20173;SDS011;10246;50.620;7.232;2022-10-13T11:48:34;15.87;;;7.63;;
20173;SDS011;10246;50.620;7.232;2022-10-13T11:51:29;9.00;;;6.27;;
20173;SDS011;10246;50.620;7.232;2022-10-13T11:54:03;11.90;;;5.97;;
20173;SDS011;10246;50.620;7.232;2022-10-13T11:56:42;13.30;;;6.40;;
20173;SDS011;10246;50.620;7.232;2022-10-13T11:59:18;10.00;;;5.50;;
20173;SDS011;10246;50.620;7.232;2022-10-13T12:01:46;10.13;;;5.20;;
20173;SDS011;10246;50.620;7.232;2022-10-13T12:04:14;8.73;;;5.47;;
20173;SDS011;10246;50.620;7.232;2022-10-13T12:06:41;9.03;;;5.20;;
20173;SDS011;10246;50.620;7.232;2022-10-13T12:09:14;13.07;;;5.43;;
20173;SDS011;10246;50.620;7.232;2022-10-13T12:11:43;9.50;;;5.07;;
20173;SDS011;10246;50.620;7.232;2022-10-13T12:14:17;8.93;;;4.97;;
20173;SDS011;10246;50.620;7.232;2022-10-13T12:16:50;10.43;;;5.60;;
20173;SDS011;10246;50.620;7.232;2022-10-13T12:19:20;7.93;;;4.93;;
20173;SDS011;10246;50.620;7.232;2022-10-13T12:21:50;14.40;;;5.30;;
20173;SDS011;10246;50.620;7.232;2022-10-13T12:24:20;7.27;;;4.60;;
20173;SDS011;10246;50.620;7.232;2022-10-13T12:26:48;8.30;;;4.83;;
20173;SDS011;10246;50.620;7.232;2022-10-13T12:29:15;8.20;;;4.37;;
20173;SDS011;10246;50.620;7.232;2022-10-13T12:31:43;9.03;;;4.50;;
20173;SDS011;10246;50.620;7.232;2022-10-13T12:34:20;5.57;;;3.93;;
20173;SDS011;10246;50.620;7.232;2022-10-13T12:36:52;9.47;;;4.63;;
20173;SDS011;10246;50.620;7.232;2022-10-13T12:39:21;8.23;;;4.87;;
20173;SDS011;10246;50.620;7.232;2022-10-13T12:41:49;5.80;;;3.63;;
20173;SDS011;10246;50.620;7.232;2022-10-13T12:44:18;12.43;;;4.73;;
20173;SDS011;10246;50.620;7.232;2022-10-13T12:46:47;10.27;;;4.43;;
20173;SDS011;10246;50.620;7.232;2022-10-13T12:49:18;8.33;;;5.40;;
20173;SDS011;10246;50.620;7.232;2022-10-13T12:51:48;10.50;;;5.40;;
20173;SDS011;10246;50.620;7.232;2022-10-13T12:54:18;8.63;;;5.77;;
20173;SDS011;10246;50.620;7.232;2022-10-13T12:56:47;9.43;;;5.67;;
20173;SDS011;10246;50.620;7.232;2022-10-13T12:59:17;8.37;;;4.67;;
20173;SDS011;10246;50.620;7.232;2022-10-13T13:01:50;9.50;;;4.97;;
20173;SDS011;10246;50.620;7.232;2022-10-13T13:04:26;9.63;;;4.77;;
20173;SDS011;10246;50.620;7.232;2022-10-13T13:07:04;7.23;;;4.77;;
20173;SDS011;10246;50.620;7.232;2022-10-13T13:09:57;8.07;;;4.70;;
20173;SDS011;10246;50.620;7.232;2022-10-13T13:12:25;10.30;;;5.03;;
20173;SDS011;10246;50.620;7.232;2022-10-13T13:14:53;11.27;;;5.00;;
20173;SDS011;10246;50.620;7.232;2022-10-13T13:17:21;10.00;;;5.20;;
20173;SDS011;10246;50.620;7.232;2022-10-13T13:19:53;8.50;;;4.33;;
20173;SDS011;10246;50.620;7.232;2022-10-13T13:22:21;10.50;;;5.00;;
20173;SDS011;10246;50.620;7.232;2022-10-13T13:24:48;8.93;;;4.73;;
20173;SDS011;10246;50.620;7.232;2022-10-13T13:27:17;7.00;;;4.87;;
20173;SDS011;10246;50.620;7.232;2022-10-13T13:29:46;9.20;;;4.67;;
20173;SDS011;10246;50.620;7.232;2022-10-13T13:32:13;7.53;;;4.60;;
20173;SDS011;10246;50.620;7.232;2022-10-13T13:34:41;10.03;;;4.90;;
20173;SDS011;10246;50.620;7.232;2022-10-13T13:37:12;10.27;;;5.03;;
20173;SDS011;10246;50.620;7.232;2022-10-13T13:39:41;7.90;;;5.17;;
20173;SDS011;10246;50.620;7.232;2022-10-13T13:42:11;9.23;;;5.33;;
20173;SDS011;10246;50.620;7.232;2022-10-13T13:44:39;9.13;;;4.67;;
20173;SDS011;10246;50.620;7.232;2022-10-13T13:47:08;7.37;;;4.83;;
20173;SDS011;10246;50.620;7.232;2022-10-13T13:49:41;9.07;;;5.23;;
20173;SDS011;10246;50.620;7.232;2022-10-13T13:52:08;9.50;;;4.57;;
20173;SDS011;10246;50.620;7.232;2022-10-13T13:54:36;9.10;;;5.37;;
20173;SDS011;10246;50.620;7.232;2022-10-13T13:57:03;6.40;;;4.90;;
20173;SDS011;10246;50.620;7.232;2022-10-13T13:59:29;10.30;;;4.83;;
20173;SDS011;10246;50.620;7.232;2022-10-13T14:01:56;8.60;;;5.13;;
20173;SDS011;10246;50.620;7.232;2022-10-13T14:04:23;14.60;;;6.40;;
20173;SDS011;10246;50.620;7.232;2022-10-13T14:06:50;6.97;;;5.10;;
20173;SDS011;10246;50.620;7.232;2022-10-13T14:09:17;6.70;;;4.73;;
20173;SDS011;10246;50.620;7.232;2022-10-13T14:11:45;7.20;;;4.87;;
20173;SDS011;10246;50.620;7.232;2022-10-13T14:14:12;9.77;;;5.13;;
20173;SDS011;10246;50.620;7.232;2022-10-13T14:16:39;9.57;;;6.30;;
20173;SDS011;10246;50.620;7.232;2022-10-13T14:19:06;8.80;;;5.50;;
20173;SDS011;10246;50.620;7.232;2022-10-13T14:21:34;11.43;;;5.70;;
20173;SDS011;10246;50.620;7.232;2022-10-13T14:24:01;11.27;;;6.60;;
20173;SDS011;10246;50.620;7.232;2022-10-13T14:26:28;9.10;;;6.13;;
20173;SDS011;10246;50.620;7.232;2022-10-13T14:28:56;10.57;;;6.37;;
20173;SDS011;10246;50.620;7.232;2022-10-13T14:31:23;9.33;;;5.97;;
20173;SDS011;10246;50.620;7.232;2022-10-13T14:33:50;9.73;;;5.10;;
20173;SDS011;10246;50.620;7.232;2022-10-13T14:36:16;7.87;;;5.60;;
20173;SDS011;10246;50.620;7.232;2022-10-13T14:38:43;9.47;;;6.07;;
20173;SDS011;10246;50.620;7.232;2022-10-13T14:41:10;10.70;;;6.00;;
20173;SDS011;10246;50.620;7.232;2022-10-13T14:43:36;7.03;;;4.90;;
20173;SDS011;10246;50.620;7.232;2022-10-13T14:46:05;6.93;;;5.07;;
20173;SDS011;10246;50.620;7.232;2022-10-13T14:48:32;8.77;;;5.23;;
20173;SDS011;10246;50.620;7.232;2022-10-13T14:51:02;11.07;;;5.20;;
20173;SDS011;10246;50.620;7.232;2022-10-13T14:53:30;8.03;;;5.30;;
20173;SDS011;10246;50.620;7.232;2022-10-13T14:56:00;9.17;;;5.33;;
20173;SDS011;10246;50.620;7.232;2022-10-13T14:58:27;9.67;;;5.13;;
20173;SDS011;10246;50.620;7.232;2022-10-13T15:00:54;7.93;;;5.13;;